首页
METAR-TAF:

METAR-TAF

机场 :

诺福克海军基地

諾福克, 弗吉尼亚州, 美国

纬度: 36-56-01N, 经度: 076-17-45W, 海拔: 4米

当前天气观测

该预报发布于46分钟前的19:59 UTC
风速10节,风向东北
温度 13°C
湿度 72%
气压 1015 hPa
能見度: 14.5公里
散云层高于5000英尺
散云层高于7000英尺

METAR: KNGU 201959Z 04010KT 9SM SCT050 SCT070 13/08 A2998 RMK AO2 SLP151 T01330083

时间: 15:45 (20:45 UTC)

预报

预报有效从20日的 07点(UTC)到 21日的 07点(UTC)
风速5节,风向多变
能見度: 3200
多云层高于500英尺
阴天层高于25000英尺
轻雾
短暂存在
从 20日的 07点(UTC)到 20日的 10点(UTC)
能見度: 0800
多云层高于300英尺
成为
从 20日的 10点(UTC)到 20日的 12点(UTC)
风速10节,风向西转西南
能见度10公里或以上
散云层高于500英尺
多云层高于4500英尺
阴天层高于25000英尺
从 20日的 1600点(UTC)
风速13节,风向西转西北
能见度10公里或以上
多云层高于5000英尺
从 21日的 0300点(UTC)
风速6节,风向
能見度: 0854
少量云层高于25000英尺

TAF: KNGU 2007/2107 VRB05KT 3200 BR BKN005 OVC250 QNH2990INS TEMPO 2007/2010 0800 FG BKN003 BECMG 2010/2012 25010KT 9999 NSW SCT005 BKN045 OVC250 QNH2991INS FM201600 29013KT 9999 BKN050 QNH2995INS FM210300 35006KT 9999 FEW250 QNH3012INS T15/2020Z T04/2107Z COR 0854 FN00182

超过4000个机场的气象观测和天气预报(METAR&TAF报告)。

可查询的气象台以黄色和红色小点在地图上表示。

将鼠标移到小点上方,可查看气象台名称。

然后点击查看天气观测和预报。

如需切换地图:点击带黑十字的绿色按钮放大地图;点击带横线的绿色按钮缩小地图;或者点击绿色箭头查看邻近地区的地图。


METAR-TAF: